Lupton, Michigan
Current Conditions -  °F | °C
As of 5:14 AM on Thursday 23 Oct 2014 (Local Time) from KOSC Reporting Station
Clear Clear  
Wind Chill: 26°   Ceiling: Unl
Heat Index: 26°   Visibility: 10mi
Dew Point: 25°   Wind: 3mph
Humidity: 94%   Direction: 300°WNW
Pressure: 30.26"   Gusts: NA
Location:  44.43°N, 84.03°W
Report Text: KOSC 230914Z AUTO 30003KT 10SM CLR M03/M03 A3026 RMK AO2 T10321040
Loading
Personal Weather Stations






























Interactive Weather Map New forecast layout! Learn more

10-Day Weather Forecast

Advertisements
Track Severe Weather on mobile